ASN logo
ASN Wikibase Occurrence # 232722
Last updated: 9 February 2020
This information is added by users of ASN. Neither ASN nor the Flight Safety Foundation are responsible for the completeness or correctness of this information. If you feel this information is incomplete or incorrect, you can submit corrected information.

Date:23-JAN-2020
Time:07:50 UTC
Type:Silhouette image of generic CRJ7 model; specific model in this crash may look slightly different
Bombardier CRJ-701
Owner/operator:Hop!
Registration: F-GRZL
C/n / msn: 10245
Fatalities:Fatalities: 0 / Occupants:
Other fatalities:0
Aircraft damage: None
Category:Serious incident
Location:Lyon Saint-Exupéry Airfield (LYS/LFLL) -   France
Phase: Approach
Nature:Domestic Scheduled Passenger
Departure airport:Lille-Lesquin Airport (LIL/LFQQ)
Destination airport:Lyon Saint-Exupéry Airfield (LYS/LFLL)
Investigating agency: BEA
Narrative:
Air France flight AF1551, operated by Hop!, performed a missed approach after aligning with the wrong runway on approach to Lyon Saint Exupéry Airport in France.
Low Visibility Procedures were in effect when the CRJ-700 approached the airport at 07:50 LT (06:50Z). During the ILS cat III approach to runway 35R the aircraft deviated to the left. The crew flew a missed approach and the aircraft overflew over the threshold of runway 35L and the "airport installations".
The aircraft returned for a safe landing.

Weather report about the incident time (0650Z)
LFLL 230600Z 00000KT 2500 0600N R35L/P2000 R17R/0250D R35R/P2000 R17L/1800D BCFG BR NSC M02/M03 Q1027 TEMPO 0350 FZFG VV///
LFLL 230700Z 05003KT 0300 R35L/0400D R17R/0250N R35R/0300D R17L/0400N FZFG VV/// M03/M04 Q1027 TEMPO 0200


Sources:

https://www.bea.aero/en/investigation-reports/notified-events/detail/event/accident-to-the-bombardier-cl600-registered-f-grzl-operated-by-hop-on-23012020-at-lyon/


Images:

Photo of F-GRZL courtesy AirHistory.net


Amsterdam - Schiphol (EHAM / AMS)
15 June 2019; (c) TavoCruz

Revision history:

Date/timeContributorUpdates
02-Feb-2020 20:20 harro Added
09-Feb-2020 19:04 harro Updated [Location]

Corrections or additions? ... Edit this accident description